createdAt,value
2022-10-02T00:03:08.741Z,14.90
2022-10-02T00:06:42.277Z,14.90
2022-10-02T00:13:32.657Z,15.00
2022-10-02T00:20:26.989Z,15.10
2022-10-02T00:23:57.250Z,15.00
2022-10-02T00:27:49.759Z,15.00
2022-10-02T00:31:31.733Z,15.00
2022-10-02T00:38:00.662Z,15.00
2022-10-02T00:41:55.261Z,15.00
2022-10-02T00:49:22.644Z,14.90
2022-10-02T00:52:42.774Z,14.90
2022-10-02T00:56:12.831Z,15.00
2022-10-02T01:04:02.112Z,15.10
2022-10-02T01:11:38.639Z,15.10
2022-10-02T01:14:31.646Z,15.10
2022-10-02T01:28:59.333Z,15.10
2022-10-02T01:31:52.817Z,15.00
2022-10-02T01:35:12.425Z,15.00
2022-10-02T01:39:16.152Z,15.00
2022-10-02T01:42:44.955Z,15.00
2022-10-02T01:46:15.411Z,15.00
2022-10-02T01:49:50.818Z,15.00
2022-10-02T01:53:09.920Z,15.00
2022-10-02T01:56:49.191Z,15.00
2022-10-02T02:07:43.980Z,15.10
2022-10-02T02:14:41.686Z,15.10
2022-10-02T02:17:49.966Z,15.10
2022-10-02T02:21:53.519Z,15.10
2022-10-02T02:28:47.329Z,15.10
2022-10-02T02:32:01.722Z,15.00
2022-10-02T02:39:56.912Z,15.10
2022-10-02T02:43:57.895Z,15.10
2022-10-02T02:47:19.824Z,15.10
2022-10-02T02:50:53.450Z,15.10
2022-10-02T02:54:24.481Z,15.10
2022-10-02T02:57:46.362Z,15.10
2022-10-02T03:00:59.906Z,15.00
2022-10-02T03:04:29.946Z,15.00
2022-10-02T03:08:09.749Z,15.00
2022-10-02T03:11:38.658Z,15.00
2022-10-02T03:15:17.504Z,15.00
2022-10-02T03:35:04.469Z,14.70
2022-10-02T03:42:04.347Z,14.70
2022-10-02T03:45:51.762Z,14.70
2022-10-02T03:49:36.632Z,14.60
2022-10-02T03:53:04.504Z,14.60
2022-10-02T03:56:42.357Z,14.60
2022-10-02T04:03:25.600Z,14.50
2022-10-02T04:06:48.052Z,14.50
2022-10-02T04:10:27.140Z,14.40
2022-10-02T04:13:46.263Z,14.40
2022-10-02T04:17:01.118Z,14.40
2022-10-02T04:20:16.520Z,14.40
2022-10-02T04:23:41.005Z,14.40
2022-10-02T04:26:56.228Z,14.40
2022-10-02T04:30:55.528Z,14.40
2022-10-02T04:40:50.075Z,14.40
2022-10-02T04:43:51.932Z,14.40
2022-10-02T04:47:15.084Z,14.40
2022-10-02T04:50:32.065Z,14.40
2022-10-02T04:54:00.567Z,14.40
2022-10-02T04:57:53.746Z,14.40
2022-10-02T05:01:52.011Z,14.40
2022-10-02T05:05:25.510Z,14.40
2022-10-02T05:08:44.856Z,14.40
2022-10-02T05:12:27.585Z,14.30
2022-10-02T05:16:08.984Z,14.30
2022-10-02T05:19:40.678Z,14.20
2022-10-02T05:23:24.319Z,14.20
2022-10-02T05:26:50.205Z,14.20
2022-10-02T05:30:29.758Z,14.20
2022-10-02T05:34:09.037Z,14.10
2022-10-02T05:40:55.842Z,14.10
2022-10-02T05:44:44.967Z,14.10
2022-10-02T05:48:02.026Z,14.00
2022-10-02T05:51:33.008Z,14.00
2022-10-02T06:05:23.122Z,14.00
2022-10-02T06:08:45.333Z,14.00
2022-10-02T06:13:10.547Z,14.00
2022-10-02T06:19:28.822Z,14.10
2022-10-02T06:22:39.169Z,14.10
2022-10-02T06:25:59.638Z,14.20
2022-10-02T06:29:35.909Z,14.20
2022-10-02T06:33:19.338Z,14.20
2022-10-02T06:37:03.389Z,14.30
2022-10-02T06:40:31.671Z,14.30
2022-10-02T06:44:22.995Z,14.30
2022-10-02T06:52:03.475Z,14.30
2022-10-02T06:55:46.172Z,14.30
2022-10-02T06:59:14.230Z,14.40
2022-10-02T07:02:54.579Z,14.30
2022-10-02T07:06:26.481Z,14.40
2022-10-02T07:10:09.823Z,14.30
2022-10-02T07:13:40.544Z,14.30
2022-10-02T07:18:37.239Z,14.30
2022-10-02T07:24:08.456Z,14.20
2022-10-02T07:27:27.893Z,14.20
2022-10-02T07:31:32.982Z,14.30
2022-10-02T07:34:35.817Z,14.30
2022-10-02T07:37:18.710Z,14.30
2022-10-02T07:40:02.102Z,14.30
2022-10-02T07:42:56.679Z,14.40
2022-10-02T07:50:27.748Z,14.50
2022-10-02T07:53:42.204Z,14.60
2022-10-02T07:57:09.673Z,14.50
2022-10-02T08:00:44.286Z,14.50
2022-10-02T08:04:05.091Z,14.50
2022-10-02T08:10:42.188Z,14.50
2022-10-02T08:13:20.488Z,14.60
2022-10-02T08:19:40.706Z,14.60
2022-10-02T08:22:54.170Z,14.70
2022-10-02T08:26:35.801Z,14.70
2022-10-02T08:30:15.721Z,14.80
2022-10-02T08:33:29.305Z,14.90
2022-10-02T08:37:12.877Z,15.10
2022-10-02T08:40:19.949Z,15.30
2022-10-02T08:43:45.148Z,15.40
2022-10-02T08:46:58.594Z,15.30
2022-10-02T08:50:15.848Z,15.30
2022-10-02T08:53:18.727Z,15.20
2022-10-02T08:56:03.448Z,15.30
2022-10-02T08:59:05.482Z,15.30
2022-10-02T09:01:59.809Z,15.30
2022-10-02T09:05:01.082Z,15.50
2022-10-02T09:08:36.594Z,15.60
2022-10-02T09:12:03.925Z,15.60
2022-10-02T09:16:07.322Z,15.70
2022-10-02T09:19:27.828Z,15.80
2022-10-02T09:22:59.384Z,16.40
2022-10-02T09:26:17.238Z,16.80
2022-10-02T09:30:09.664Z,16.70
2022-10-02T09:34:08.040Z,16.70
2022-10-02T09:41:13.724Z,16.70
2022-10-02T09:44:29.042Z,16.40
2022-10-02T09:48:05.375Z,16.40
2022-10-02T09:55:07.191Z,16.30
2022-10-02T09:59:02.791Z,16.20
2022-10-02T10:02:34.003Z,16.20
2022-10-02T10:06:30.918Z,16.20
2022-10-02T10:10:07.384Z,16.30
2022-10-02T10:13:51.726Z,16.40
2022-10-02T10:17:59.452Z,16.50
2022-10-02T10:21:40.885Z,16.70
2022-10-02T10:28:49.166Z,17.30
2022-10-02T10:32:26.146Z,17.70
2022-10-02T10:36:02.899Z,17.90
2022-10-02T10:39:05.161Z,17.70
2022-10-02T10:43:06.665Z,17.80
2022-10-02T10:46:17.882Z,17.90
2022-10-02T10:49:11.525Z,18.00
2022-10-02T10:51:48.280Z,18.10
2022-10-02T10:54:40.568Z,18.20
2022-10-02T10:57:17.700Z,18.10
2022-10-02T11:00:17.352Z,18.10
2022-10-02T11:03:24.252Z,18.20
2022-10-02T11:06:17.318Z,18.30
2022-10-02T11:09:26.538Z,18.30
2022-10-02T11:12:12.706Z,18.40
2022-10-02T11:14:58.455Z,18.30
2022-10-02T11:18:41.227Z,18.30
2022-10-02T11:37:12.837Z,18.00
2022-10-02T11:41:38.273Z,17.80
2022-10-02T11:45:19.613Z,17.40
2022-10-02T11:49:06.804Z,17.10
2022-10-02T11:53:01.220Z,16.90
2022-10-02T11:56:27.654Z,16.90
2022-10-02T12:07:09.210Z,17.20
2022-10-02T12:11:23.187Z,17.50
2022-10-02T12:15:13.642Z,17.70
2022-10-02T12:19:10.292Z,17.70
2022-10-02T12:22:44.146Z,17.70
2022-10-02T12:26:18.599Z,17.90
2022-10-02T12:29:38.808Z,18.10
2022-10-02T12:33:14.709Z,18.10
2022-10-02T12:43:51.770Z,18.20
2022-10-02T12:47:36.176Z,18.30
2022-10-02T12:51:28.254Z,18.30
2022-10-02T12:59:25.035Z,18.40
2022-10-02T13:06:34.362Z,18.10
2022-10-02T13:10:01.826Z,18.10
2022-10-02T13:13:33.477Z,18.20
2022-10-02T13:16:49.370Z,18.40
2022-10-02T13:20:07.570Z,18.40
2022-10-02T13:23:38.767Z,18.00
2022-10-02T13:27:31.534Z,17.90
2022-10-02T13:30:37.925Z,18.80
2022-10-02T13:34:14.027Z,18.90
2022-10-02T13:41:19.264Z,19.40
2022-10-02T13:52:06.075Z,20.00
2022-10-02T14:10:25.119Z,18.70
2022-10-02T14:17:28.044Z,17.80
2022-10-02T14:20:41.930Z,17.30
2022-10-02T14:24:41.635Z,17.10
2022-10-02T14:28:21.683Z,17.90
2022-10-02T14:32:11.292Z,19.00
2022-10-02T14:35:59.796Z,19.40
2022-10-02T14:38:52.120Z,18.50
2022-10-02T14:41:48.550Z,17.90
2022-10-02T14:44:43.251Z,17.80
2022-10-02T14:47:34.224Z,17.80
2022-10-02T14:50:25.289Z,17.50
2022-10-02T14:53:12.640Z,17.50
2022-10-02T14:56:08.401Z,18.00
2022-10-02T14:58:50.783Z,18.60
2022-10-02T15:01:52.637Z,18.80
2022-10-02T15:08:43.323Z,18.80
2022-10-02T15:12:31.132Z,18.40
2022-10-02T15:16:02.967Z,17.90
2022-10-02T15:19:15.681Z,17.50
2022-10-02T15:26:40.121Z,17.00
2022-10-02T15:29:57.981Z,16.90
2022-10-02T15:37:27.799Z,17.30
2022-10-02T15:40:56.980Z,17.30
2022-10-02T15:44:37.257Z,17.30
2022-10-02T15:48:20.219Z,17.20
2022-10-02T15:51:44.867Z,17.10
2022-10-02T15:54:27.012Z,16.90
2022-10-02T15:57:08.730Z,16.80
2022-10-02T15:59:50.968Z,16.70
2022-10-02T16:02:36.501Z,16.60
2022-10-02T16:05:22.885Z,16.40
2022-10-02T16:08:17.958Z,16.30
2022-10-02T16:11:07.681Z,16.20
2022-10-02T16:13:48.821Z,16.10
2022-10-02T16:16:32.622Z,16.00
2022-10-02T16:19:14.436Z,15.90
2022-10-02T16:22:01.602Z,15.70
2022-10-02T16:24:46.044Z,15.70
2022-10-02T16:27:32.536Z,15.60
2022-10-02T16:30:13.389Z,15.50
2022-10-02T16:33:02.741Z,15.40
2022-10-02T16:36:15.862Z,15.40
2022-10-02T16:38:58.356Z,15.30
2022-10-02T16:42:22.480Z,15.20
2022-10-02T16:45:53.623Z,15.10
2022-10-02T16:59:49.892Z,14.50
2022-10-02T17:06:55.933Z,14.30
2022-10-02T17:10:19.244Z,14.30
2022-10-02T17:13:27.639Z,14.20
2022-10-02T17:16:52.744Z,14.10
2022-10-02T17:20:03.692Z,14.10
2022-10-02T17:23:48.924Z,14.00
2022-10-02T17:27:14.984Z,13.80
2022-10-02T17:30:18.460Z,13.60
2022-10-02T17:33:46.268Z,13.50
2022-10-02T17:37:01.620Z,13.40
2022-10-02T17:40:32.569Z,13.20
2022-10-02T17:44:06.904Z,13.00
2022-10-02T17:47:31.135Z,12.80
2022-10-02T17:51:02.945Z,12.60
2022-10-02T17:54:36.063Z,12.40
2022-10-02T17:57:55.695Z,12.30
2022-10-02T18:01:15.849Z,12.10
2022-10-02T18:08:11.210Z,11.70
2022-10-02T18:11:17.298Z,11.50
2022-10-02T18:22:17.725Z,11.10
2022-10-02T18:25:27.611Z,11.00
2022-10-02T18:29:08.087Z,10.80
2022-10-02T18:32:29.503Z,10.80
2022-10-02T18:36:16.239Z,10.80
2022-10-02T18:39:50.121Z,10.80
2022-10-02T18:46:45.776Z,10.50
2022-10-02T18:50:15.813Z,10.50
2022-10-02T18:54:04.973Z,10.50
2022-10-02T18:57:14.219Z,10.60
2022-10-02T19:00:37.019Z,10.50
2022-10-02T19:07:33.091Z,10.10
2022-10-02T19:14:55.409Z,10.10
2022-10-02T19:21:20.098Z,9.70
2022-10-02T19:24:39.886Z,9.60
2022-10-02T19:28:20.984Z,9.70
2022-10-02T19:32:07.055Z,9.60
2022-10-02T19:35:24.117Z,9.60
2022-10-02T19:39:08.766Z,9.50
2022-10-02T19:42:21.068Z,9.40
2022-10-02T19:49:47.511Z,9.60
2022-10-02T19:54:11.204Z,9.80
2022-10-02T19:57:39.039Z,9.80
2022-10-02T20:01:00.135Z,9.90
2022-10-02T20:04:34.353Z,9.60
2022-10-02T20:11:06.406Z,9.40
2022-10-02T20:14:17.335Z,9.30
2022-10-02T20:21:26.666Z,9.40
2022-10-02T20:24:55.543Z,9.40
2022-10-02T20:28:31.899Z,9.40
2022-10-02T20:31:55.836Z,9.40
2022-10-02T20:35:06.235Z,9.40
2022-10-02T20:38:48.462Z,9.30
2022-10-02T20:45:52.403Z,9.30
2022-10-02T20:49:28.995Z,9.30
2022-10-02T20:53:05.373Z,9.30
2022-10-02T20:56:28.999Z,9.10
2022-10-02T21:00:52.767Z,9.20
2022-10-02T21:19:51.620Z,9.20
2022-10-02T21:27:19.870Z,8.70
2022-10-02T21:31:07.230Z,8.60
2022-10-02T21:34:29.575Z,8.50
2022-10-02T21:41:32.707Z,8.60
2022-10-02T21:44:53.359Z,8.50
2022-10-02T21:48:21.894Z,8.50
2022-10-02T21:51:58.742Z,8.50
2022-10-02T21:59:17.750Z,8.40
2022-10-02T22:06:42.132Z,8.50
2022-10-02T22:10:05.483Z,8.30
2022-10-02T22:17:35.496Z,8.20
2022-10-02T22:21:02.551Z,8.30
2022-10-02T22:24:36.526Z,8.30
2022-10-02T22:28:46.324Z,8.30
2022-10-02T22:32:30.381Z,8.30
2022-10-02T22:36:24.251Z,8.30
2022-10-02T22:39:34.010Z,8.30
2022-10-02T22:46:08.424Z,8.50
2022-10-02T22:50:10.652Z,8.40
2022-10-02T22:53:44.205Z,8.50
2022-10-02T22:58:38.071Z,8.10
2022-10-02T23:00:50.182Z,7.90
2022-10-02T23:04:10.543Z,7.60
2022-10-02T23:07:51.275Z,7.50
2022-10-02T23:11:41.038Z,7.60
2022-10-02T23:15:20.742Z,7.50
2022-10-02T23:18:27.002Z,7.40
2022-10-02T23:22:02.527Z,7.50
2022-10-02T23:25:30.183Z,7.70
2022-10-02T23:28:34.821Z,7.70
2022-10-02T23:32:05.922Z,7.70
2022-10-02T23:35:22.727Z,7.80
2022-10-02T23:38:49.661Z,7.70
2022-10-02T23:42:08.186Z,7.60
2022-10-02T23:45:58.719Z,7.60
2022-10-02T23:53:21.219Z,7.50
2022-10-02T23:56:19.316Z,7.70
2022-10-02T23:59:38.583Z,7.70
